createdAt,value
2022-12-11T00:01:11.795Z,34.42
2022-12-11T00:03:40.228Z,31.92
2022-12-11T00:06:09.112Z,36.38
2022-12-11T00:08:37.233Z,35.97
2022-12-11T00:11:05.393Z,33.05
2022-12-11T00:13:33.393Z,32.85
2022-12-11T00:16:01.404Z,30.88
2022-12-11T00:18:30.823Z,32.88
2022-12-11T00:21:01.588Z,28.75
2022-12-11T00:23:29.651Z,33.15
2022-12-11T00:25:58.033Z,34.25
2022-12-11T00:28:26.237Z,34.30
2022-12-11T00:30:54.221Z,29.52
2022-12-11T00:33:22.150Z,31.88
2022-12-11T00:35:51.464Z,30.85
2022-12-11T00:38:21.760Z,30.67
2022-12-11T00:40:50.122Z,30.67
2022-12-11T00:43:18.839Z,35.45
2022-12-11T00:45:48.314Z,28.58
2022-12-11T00:48:16.725Z,31.48
2022-12-11T00:50:44.805Z,30.63
2022-12-11T00:53:14.347Z,32.03
2022-12-11T00:55:43.810Z,30.10
2022-12-11T00:58:12.730Z,31.05
2022-12-11T01:00:41.640Z,32.60
2022-12-11T01:03:09.949Z,30.08
2022-12-11T01:05:38.056Z,29.60
2022-12-11T01:08:06.328Z,34.80
2022-12-11T01:10:35.991Z,30.63
2022-12-11T01:13:07.336Z,29.20
2022-12-11T01:15:41.757Z,26.98
2022-12-11T01:18:10.563Z,28.67
2022-12-11T01:20:39.949Z,32.63
2022-12-11T01:23:08.315Z,28.20
2022-12-11T01:25:39.217Z,25.67
2022-12-11T01:28:07.913Z,27.83
2022-12-11T01:30:37.908Z,30.83
2022-12-11T01:33:06.083Z,31.63
2022-12-11T01:35:34.437Z,30.17
2022-12-11T01:38:02.871Z,27.27
2022-12-11T01:40:31.015Z,28.05
2022-12-11T01:43:00.462Z,29.60
2022-12-11T01:45:47.225Z,27.70
2022-12-11T01:48:18.585Z,25.83
2022-12-11T01:50:50.411Z,27.80
2022-12-11T01:53:22.333Z,30.20
2022-12-11T01:55:54.754Z,27.85
2022-12-11T01:58:27.448Z,29.98
2022-12-11T02:00:56.921Z,29.83
2022-12-11T02:03:25.144Z,32.00
2022-12-11T02:05:53.275Z,26.30
2022-12-11T02:08:21.729Z,27.40
2022-12-11T02:11:02.503Z,28.60
2022-12-11T02:13:40.036Z,28.70
2022-12-11T02:16:17.498Z,27.85
2022-12-11T02:18:52.936Z,28.92
2022-12-11T02:21:25.569Z,28.80
2022-12-11T02:24:17.988Z,28.55
2022-12-11T02:26:59.007Z,26.95
2022-12-11T02:29:33.821Z,31.77
2022-12-11T02:32:05.784Z,30.38
2022-12-11T02:34:39.108Z,25.55
2022-12-11T02:37:12.182Z,28.92
2022-12-11T02:39:43.378Z,31.05
2022-12-11T02:42:13.541Z,29.80
2022-12-11T02:44:44.660Z,29.15
2022-12-11T02:47:14.378Z,28.35
2022-12-11T02:49:45.087Z,29.75
2022-12-11T02:52:15.314Z,30.80
2022-12-11T02:54:45.925Z,28.27
2022-12-11T02:57:20.360Z,30.15
2022-12-11T02:59:49.832Z,31.15
2022-12-11T03:02:18.846Z,26.58
2022-12-11T03:04:47.912Z,28.55
2022-12-11T03:07:18.917Z,28.88
2022-12-11T03:09:48.812Z,27.80
2022-12-11T03:12:20.452Z,30.67
2022-12-11T03:14:50.618Z,31.13
2022-12-11T03:17:22.305Z,27.00
2022-12-11T03:20:14.424Z,27.85
2022-12-11T03:23:08.506Z,27.17
2022-12-11T03:25:45.424Z,30.15
2022-12-11T03:28:17.378Z,28.45
2022-12-11T03:30:50.608Z,31.33
2022-12-11T03:33:23.399Z,29.95
2022-12-11T03:35:56.015Z,28.98
2022-12-11T03:38:28.993Z,27.85
2022-12-11T03:41:02.367Z,30.23
2022-12-11T03:43:31.986Z,26.73
2022-12-11T03:46:02.479Z,27.77
2022-12-11T03:48:34.807Z,26.35
2022-12-11T03:51:04.883Z,28.55
2022-12-11T03:53:34.280Z,27.85
2022-12-11T03:56:03.488Z,30.40
2022-12-11T03:58:31.823Z,24.85
2022-12-11T04:01:01.173Z,26.98
2022-12-11T04:03:29.336Z,29.00
2022-12-11T04:05:57.450Z,28.13
2022-12-11T04:08:25.515Z,26.35
2022-12-11T04:11:13.990Z,30.00
2022-12-11T04:13:43.102Z,27.90
2022-12-11T04:16:11.516Z,28.60
2022-12-11T04:18:56.786Z,28.00
2022-12-11T04:21:42.008Z,27.92
2022-12-11T04:24:16.484Z,27.27
2022-12-11T04:26:44.776Z,26.13
2022-12-11T04:29:13.248Z,29.63
2022-12-11T04:31:42.897Z,26.13
2022-12-11T04:34:11.162Z,25.20
2022-12-11T04:36:39.331Z,28.50
2022-12-11T04:39:07.472Z,28.23
2022-12-11T04:41:37.202Z,30.40
2022-12-11T04:44:05.758Z,25.30
2022-12-11T04:46:34.231Z,27.33
2022-12-11T04:49:03.730Z,28.92
2022-12-11T04:51:31.729Z,23.65
2022-12-11T04:54:00.383Z,31.55
2022-12-11T04:56:28.363Z,22.67
2022-12-11T04:58:56.378Z,26.70
2022-12-11T05:01:24.629Z,31.42
2022-12-11T05:03:52.706Z,30.60
2022-12-11T05:06:22.179Z,31.42
2022-12-11T05:08:50.137Z,28.40
2022-12-11T05:11:18.898Z,26.50
2022-12-11T05:13:47.323Z,27.67
2022-12-11T05:16:17.644Z,27.35
2022-12-11T05:18:47.355Z,26.15
2022-12-11T05:21:16.641Z,25.27
2022-12-11T05:23:46.074Z,29.08
2022-12-11T05:26:15.837Z,24.88
2022-12-11T05:28:44.242Z,26.33
2022-12-11T05:31:15.813Z,25.95
2022-12-11T05:33:44.455Z,24.93
2022-12-11T05:36:18.333Z,26.63
2022-12-11T05:38:47.795Z,24.65
2022-12-11T05:41:17.854Z,26.08
2022-12-11T05:43:46.008Z,26.35
2022-12-11T05:46:16.865Z,25.17
2022-12-11T05:48:46.036Z,23.70
2022-12-11T05:51:15.052Z,24.63
2022-12-11T05:53:44.078Z,27.00
2022-12-11T05:56:14.919Z,26.85
2022-12-11T05:58:44.741Z,25.90
2022-12-11T06:01:14.989Z,25.25
2022-12-11T06:03:43.388Z,24.45
2022-12-11T06:06:11.680Z,25.27
2022-12-11T06:08:39.704Z,28.35
2022-12-11T06:11:08.182Z,24.80
2022-12-11T06:13:37.484Z,22.45
2022-12-11T06:16:07.382Z,24.15
2022-12-11T06:18:37.744Z,24.15
2022-12-11T06:21:13.554Z,24.73
2022-12-11T06:23:42.466Z,21.35
2022-12-11T06:26:10.845Z,25.58
2022-12-11T06:28:40.588Z,23.58
2022-12-11T06:31:09.017Z,22.95
2022-12-11T06:33:37.236Z,23.65
2022-12-11T06:36:06.349Z,22.27
2022-12-11T06:38:34.631Z,22.35
2022-12-11T06:41:04.785Z,22.00
2022-12-11T06:43:32.868Z,23.77
2022-12-11T06:46:05.004Z,22.17
2022-12-11T06:48:33.219Z,22.00
2022-12-11T06:51:01.570Z,22.02
2022-12-11T06:53:29.495Z,18.35
2022-12-11T06:55:57.673Z,20.45
2022-12-11T06:58:25.702Z,20.33
2022-12-11T07:00:53.679Z,21.17
2022-12-11T07:03:23.397Z,18.08
2022-12-11T07:05:51.341Z,16.85
2022-12-11T07:08:19.458Z,17.40
2022-12-11T07:10:47.425Z,19.17
2022-12-11T07:13:15.380Z,19.52
2022-12-11T07:15:43.339Z,19.58
2022-12-11T07:18:11.798Z,17.70
2022-12-11T07:20:41.189Z,24.73
2022-12-11T07:23:09.188Z,19.48
2022-12-11T07:25:38.539Z,21.42
2022-12-11T07:28:06.494Z,19.70
2022-12-11T07:30:34.452Z,20.05
2022-12-11T07:33:02.540Z,19.85
2022-12-11T07:35:30.497Z,16.52
2022-12-11T07:37:59.763Z,19.33
2022-12-11T07:40:27.924Z,16.33
2022-12-11T07:42:55.968Z,18.83
2022-12-11T07:45:26.434Z,17.95
2022-12-11T07:47:54.407Z,15.65
2022-12-11T07:50:22.416Z,16.88
2022-12-11T07:52:50.456Z,18.70
2022-12-11T07:55:20.141Z,14.60
2022-12-11T07:57:48.113Z,16.65
2022-12-11T08:00:17.395Z,16.38
2022-12-11T08:02:45.324Z,17.90
2022-12-11T08:05:13.910Z,18.38
2022-12-11T08:07:42.184Z,19.30
2022-12-11T08:10:10.848Z,18.38
2022-12-11T08:12:40.205Z,19.45
2022-12-11T08:15:09.788Z,20.88
2022-12-11T08:17:40.230Z,55.10
2022-12-11T08:20:09.496Z,76.60
2022-12-11T08:22:37.423Z,26.90
2022-12-11T08:25:06.244Z,21.35
2022-12-11T08:27:34.221Z,18.83
2022-12-11T08:30:04.317Z,22.35
2022-12-11T08:32:32.266Z,18.65
2022-12-11T08:35:00.195Z,17.63
2022-12-11T08:37:29.529Z,22.42
2022-12-11T08:39:57.402Z,18.13
2022-12-11T08:42:25.318Z,19.88
2022-12-11T08:44:53.252Z,20.90
2022-12-11T08:47:23.089Z,23.23
2022-12-11T08:49:51.401Z,29.90
2022-12-11T08:52:19.642Z,24.88
2022-12-11T08:54:48.321Z,19.00
2022-12-11T08:57:16.489Z,18.60
2022-12-11T08:59:44.510Z,19.05
2022-12-11T09:02:13.395Z,20.13
2022-12-11T09:04:43.005Z,20.83
2022-12-11T09:07:11.045Z,19.85
2022-12-11T09:09:39.149Z,19.45
2022-12-11T09:12:07.301Z,18.63
2022-12-11T09:14:35.697Z,18.45
2022-12-11T09:17:05.482Z,20.00
2022-12-11T09:19:33.530Z,22.30
2022-12-11T09:22:03.517Z,21.60
2022-12-11T09:24:31.750Z,17.60
2022-12-11T09:26:59.826Z,20.30
2022-12-11T09:29:27.827Z,19.98
2022-12-11T09:31:55.875Z,16.65
2022-12-11T09:34:29.162Z,18.65
2022-12-11T09:36:57.861Z,17.95
2022-12-11T09:39:27.901Z,16.77
2022-12-11T09:42:02.608Z,18.67
2022-12-11T09:44:39.178Z,13.25
2022-12-11T09:47:21.242Z,17.65
2022-12-11T09:49:52.480Z,17.40
2022-12-11T09:52:24.717Z,15.73
2022-12-11T09:54:57.379Z,16.52
2022-12-11T09:57:37.076Z,15.45
2022-12-11T10:00:15.007Z,13.90
2022-12-11T10:03:03.293Z,17.58
2022-12-11T10:05:39.108Z,17.42
2022-12-11T10:08:13.224Z,14.45
2022-12-11T10:10:46.062Z,14.02
2022-12-11T10:13:23.688Z,12.43
2022-12-11T10:15:57.571Z,13.05
2022-12-11T10:18:28.829Z,14.73
2022-12-11T10:20:56.891Z,16.45
2022-12-11T10:23:30.319Z,18.42
2022-12-11T10:26:06.899Z,16.42
2022-12-11T10:28:36.106Z,15.38
2022-12-11T10:31:14.954Z,17.70
2022-12-11T10:33:52.604Z,13.75
2022-12-11T10:36:27.541Z,16.98
2022-12-11T10:38:55.977Z,15.48
2022-12-11T10:41:34.427Z,12.73
2022-12-11T10:44:03.614Z,15.35
2022-12-11T10:46:33.165Z,15.75
2022-12-11T10:49:02.121Z,15.95
2022-12-11T10:51:36.498Z,16.13
2022-12-11T10:54:08.624Z,15.15
2022-12-11T10:56:39.548Z,15.18
2022-12-11T10:59:08.654Z,15.32
2022-12-11T11:01:37.104Z,14.25
2022-12-11T11:04:08.377Z,18.13
2022-12-11T11:06:36.799Z,16.10
2022-12-11T11:09:05.195Z,15.13
2022-12-11T11:11:36.619Z,16.13
2022-12-11T11:14:15.336Z,15.65
2022-12-11T11:16:45.717Z,16.23
2022-12-11T11:19:22.022Z,15.02
2022-12-11T11:21:53.119Z,13.43
2022-12-11T11:24:28.861Z,14.95
2022-12-11T11:27:12.975Z,13.95
2022-12-11T11:29:47.662Z,15.68
2022-12-11T11:32:22.223Z,15.80
2022-12-11T11:34:50.217Z,15.13
2022-12-11T11:37:28.060Z,16.38
2022-12-11T11:40:03.079Z,12.90
2022-12-11T11:42:40.136Z,13.43
2022-12-11T11:45:18.157Z,14.82
2022-12-11T11:47:56.148Z,16.75
2022-12-11T11:50:29.687Z,14.70
2022-12-11T11:53:04.903Z,13.07
2022-12-11T11:55:42.188Z,14.02
2022-12-11T11:58:16.524Z,13.25
2022-12-11T12:00:46.206Z,13.63
2022-12-11T12:03:18.515Z,13.23
2022-12-11T12:05:59.076Z,14.13
2022-12-11T12:08:42.792Z,14.07
2022-12-11T12:11:18.047Z,12.50
2022-12-11T12:13:53.738Z,16.70
2022-12-11T12:19:38.184Z,11.88
2022-12-11T12:22:17.298Z,15.15
2022-12-11T12:24:56.072Z,15.43
2022-12-11T12:30:23.251Z,13.00
2022-12-11T12:33:08.114Z,13.13
2022-12-11T12:35:38.258Z,12.18
2022-12-11T12:38:12.931Z,13.32
2022-12-11T12:40:52.388Z,15.02
2022-12-11T12:43:40.588Z,13.43
2022-12-11T12:46:21.443Z,14.05
2022-12-11T12:48:52.531Z,13.25
2022-12-11T12:51:20.863Z,12.43
2022-12-11T12:54:03.229Z,13.35
2022-12-11T12:56:34.138Z,16.20
2022-12-11T12:59:02.284Z,12.88
2022-12-11T13:01:32.297Z,14.75
2022-12-11T13:04:05.581Z,18.20
2022-12-11T13:06:37.804Z,13.38
2022-12-11T13:09:16.997Z,15.38
2022-12-11T13:11:45.777Z,12.85
2022-12-11T13:14:28.679Z,15.75
2022-12-11T13:17:09.204Z,13.43
2022-12-11T13:19:42.620Z,12.18
2022-12-11T13:22:23.271Z,12.95
2022-12-11T13:25:01.780Z,13.13
2022-12-11T13:27:39.456Z,13.18
2022-12-11T13:30:21.679Z,17.60
2022-12-11T13:32:59.814Z,13.13
2022-12-11T13:35:30.445Z,10.13
2022-12-11T13:38:04.216Z,11.20
2022-12-11T13:40:39.781Z,12.27
2022-12-11T13:43:17.342Z,14.18
2022-12-11T13:45:49.518Z,13.23
2022-12-11T13:48:23.297Z,14.10
2022-12-11T13:50:54.335Z,13.52
2022-12-11T13:53:23.206Z,13.15
2022-12-11T13:55:57.901Z,13.85
2022-12-11T13:58:26.270Z,11.85
2022-12-11T14:01:01.232Z,13.82
2022-12-11T14:03:29.382Z,17.13
2022-12-11T14:05:59.340Z,14.40
2022-12-11T14:08:34.836Z,16.17
2022-12-11T14:11:03.404Z,18.75
2022-12-11T14:13:36.234Z,16.45
2022-12-11T14:16:07.316Z,22.25
2022-12-11T14:18:36.878Z,20.67
2022-12-11T14:21:07.620Z,20.77
2022-12-11T14:23:37.277Z,15.82
2022-12-11T14:26:18.357Z,16.77
2022-12-11T14:28:46.440Z,19.33
2022-12-11T14:31:19.343Z,19.60
2022-12-11T14:33:51.945Z,29.52
2022-12-11T14:38:53.635Z,16.23
2022-12-11T14:41:27.323Z,21.45
2022-12-11T14:43:59.936Z,13.52
2022-12-11T14:46:36.742Z,19.58
2022-12-11T14:49:08.498Z,16.33
2022-12-11T14:51:42.008Z,17.98
2022-12-11T14:54:20.936Z,19.13
2022-12-11T14:56:49.063Z,17.50
2022-12-11T14:59:28.362Z,14.13
2022-12-11T15:02:02.561Z,16.60
2022-12-11T15:04:33.371Z,16.15
2022-12-11T15:07:02.710Z,17.50
2022-12-11T15:09:38.136Z,16.42
2022-12-11T15:12:12.915Z,17.13
2022-12-11T15:14:46.731Z,17.70
2022-12-11T15:17:16.262Z,17.77
2022-12-11T15:19:51.275Z,15.63
2022-12-11T15:22:23.765Z,20.42
2022-12-11T15:27:27.039Z,20.02
2022-12-11T15:29:55.211Z,18.52
2022-12-11T15:32:23.976Z,23.05
2022-12-11T15:34:54.043Z,22.27
2022-12-11T15:37:26.656Z,19.98
2022-12-11T15:39:56.271Z,22.90
2022-12-11T15:42:28.399Z,34.00
2022-12-11T15:44:57.095Z,33.35
2022-12-11T15:47:27.246Z,30.80
2022-12-11T15:49:58.351Z,40.72
2022-12-11T15:52:27.723Z,36.67
2022-12-11T15:54:56.041Z,39.10
2022-12-11T15:57:25.497Z,35.20
2022-12-11T15:59:56.103Z,26.02
2022-12-11T16:02:26.736Z,29.75
2022-12-11T16:04:55.015Z,35.40
2022-12-11T16:07:25.370Z,34.67
2022-12-11T16:09:54.831Z,50.53
2022-12-11T16:12:22.919Z,45.88
2022-12-11T16:14:51.060Z,41.42
2022-12-11T16:17:19.128Z,51.35
2022-12-11T16:19:47.152Z,50.63
2022-12-11T16:22:15.839Z,58.45
2022-12-11T16:24:44.524Z,51.33
2022-12-11T16:27:17.305Z,47.28
2022-12-11T16:29:48.178Z,41.83
2022-12-11T16:32:16.337Z,42.85
2022-12-11T16:34:44.434Z,26.25
2022-12-11T16:37:13.071Z,23.38
2022-12-11T16:39:42.592Z,21.33
2022-12-11T16:42:10.601Z,28.80
2022-12-11T16:44:43.973Z,30.25
2022-12-11T16:47:12.402Z,17.55
2022-12-11T16:49:40.517Z,21.55
2022-12-11T16:52:08.835Z,26.25
2022-12-11T16:54:36.980Z,25.27
2022-12-11T16:57:05.314Z,28.10
2022-12-11T16:59:37.070Z,34.67
2022-12-11T17:02:08.551Z,26.33
2022-12-11T17:04:38.703Z,17.45
2022-12-11T17:07:10.561Z,22.02
2022-12-11T17:09:38.947Z,28.95
2022-12-11T17:12:07.648Z,26.40
2022-12-11T17:14:35.910Z,25.30
2022-12-11T17:17:04.162Z,27.27
2022-12-11T17:19:33.894Z,28.48
2022-12-11T17:22:07.476Z,22.60
2022-12-11T17:24:35.793Z,24.70
2022-12-11T17:27:03.996Z,19.65
2022-12-11T17:29:32.963Z,21.15
2022-12-11T17:32:03.129Z,25.88
2022-12-11T17:34:37.590Z,21.98
2022-12-11T17:37:07.579Z,18.35
2022-12-11T17:39:35.869Z,20.40
2022-12-11T17:42:04.046Z,16.77
2022-12-11T17:44:32.115Z,23.15
2022-12-11T17:47:01.202Z,19.08
2022-12-11T17:49:32.669Z,22.45
2022-12-11T17:52:01.089Z,20.55
2022-12-11T17:54:30.984Z,24.27
2022-12-11T17:56:59.364Z,16.52
2022-12-11T17:59:27.674Z,21.00
2022-12-11T18:01:56.724Z,20.75
2022-12-11T18:04:32.507Z,21.30
2022-12-11T18:07:00.744Z,19.50
2022-12-11T18:09:35.654Z,19.60
2022-12-11T18:12:19.580Z,19.48
2022-12-11T18:14:54.901Z,18.48
2022-12-11T18:17:25.136Z,17.45
2022-12-11T18:19:53.390Z,19.02
2022-12-11T18:22:21.861Z,17.33
2022-12-11T18:24:51.647Z,18.65
2022-12-11T18:27:19.962Z,21.20
2022-12-11T18:29:48.224Z,19.23
2022-12-11T18:32:16.634Z,16.05
2022-12-11T18:34:45.074Z,18.02
2022-12-11T18:37:15.760Z,17.95
2022-12-11T18:39:44.209Z,20.58
2022-12-11T18:45:01.891Z,20.27
2022-12-11T18:47:29.991Z,20.42
2022-12-11T18:50:02.474Z,15.93
2022-12-11T18:52:33.825Z,17.58
2022-12-11T18:55:01.906Z,18.75
2022-12-11T18:57:31.270Z,17.38
2022-12-11T19:00:02.498Z,15.35
2022-12-11T19:02:30.608Z,19.90
2022-12-11T19:04:58.916Z,21.05
2022-12-11T19:07:26.917Z,17.90
2022-12-11T19:09:54.969Z,18.08
2022-12-11T19:12:23.020Z,20.05
2022-12-11T19:14:53.708Z,20.95
2022-12-11T19:17:22.174Z,21.08
2022-12-11T19:19:50.552Z,26.98
2022-12-11T19:22:18.627Z,19.73
2022-12-11T19:24:47.208Z,19.05
2022-12-11T19:27:15.297Z,19.08
2022-12-11T19:29:43.382Z,19.10
2022-12-11T19:32:12.687Z,19.23
2022-12-11T19:34:41.232Z,17.95
2022-12-11T19:37:09.437Z,19.10
2022-12-11T19:39:39.652Z,51.78
2022-12-11T19:42:07.681Z,46.40
2022-12-11T19:44:35.600Z,19.40
2022-12-11T19:47:04.139Z,19.08
2022-12-11T19:49:33.564Z,17.85
2022-12-11T19:52:01.577Z,19.17
2022-12-11T19:54:29.526Z,18.00
2022-12-11T19:56:57.547Z,19.75
2022-12-11T19:59:25.660Z,15.65
2022-12-11T20:01:53.585Z,14.82
2022-12-11T20:04:21.772Z,17.80
2022-12-11T20:06:51.617Z,14.27
2022-12-11T20:09:19.632Z,19.67
2022-12-11T20:11:48.361Z,15.82
2022-12-11T20:14:23.305Z,15.43
2022-12-11T20:19:41.040Z,14.50
2022-12-11T20:22:11.096Z,14.70
2022-12-11T20:24:39.429Z,17.65
2022-12-11T20:27:07.468Z,13.90
2022-12-11T20:29:35.396Z,14.85
2022-12-11T20:32:03.460Z,19.10
2022-12-11T20:34:31.667Z,20.25
2022-12-11T20:37:00.371Z,15.70
2022-12-11T20:39:31.875Z,16.15
2022-12-11T20:42:01.122Z,16.05
2022-12-11T20:44:29.100Z,16.83
2022-12-11T20:46:57.072Z,20.17
2022-12-11T20:49:24.968Z,13.70
2022-12-11T20:51:53.466Z,14.43
2022-12-11T20:54:21.376Z,14.85
2022-12-11T20:56:50.791Z,12.90
2022-12-11T20:59:19.268Z,17.15
2022-12-11T21:01:47.381Z,15.25
2022-12-11T21:04:15.406Z,13.50
2022-12-11T21:06:43.440Z,15.15
2022-12-11T21:09:17.608Z,16.25
2022-12-11T21:11:45.956Z,15.05
2022-12-11T21:14:15.675Z,14.43
2022-12-11T21:16:43.952Z,11.93
2022-12-11T21:19:16.638Z,13.68
2022-12-11T21:21:46.396Z,12.75
2022-12-11T21:24:17.263Z,12.75
2022-12-11T21:26:45.313Z,15.45
2022-12-11T21:29:15.067Z,14.40
2022-12-11T21:31:43.404Z,15.30
2022-12-11T21:34:12.319Z,14.77
2022-12-11T21:36:40.719Z,15.68
2022-12-11T21:39:08.843Z,14.82
2022-12-11T21:41:36.817Z,16.42
2022-12-11T21:46:55.167Z,18.35
2022-12-11T21:49:23.324Z,15.20
2022-12-11T21:51:51.390Z,15.00
2022-12-11T21:54:20.227Z,15.00
2022-12-11T21:56:48.435Z,13.70
2022-12-11T21:59:16.420Z,13.85
2022-12-11T22:01:46.951Z,18.88
2022-12-11T22:04:37.429Z,16.50
2022-12-11T22:07:10.565Z,13.60
2022-12-11T22:09:38.600Z,13.00
2022-12-11T22:12:07.111Z,13.63
2022-12-11T22:14:36.181Z,13.23
2022-12-11T22:17:04.193Z,14.55
2022-12-11T22:19:32.836Z,18.63
2022-12-11T22:22:02.304Z,15.13
2022-12-11T22:24:30.315Z,14.13
2022-12-11T22:26:58.430Z,15.77
2022-12-11T22:29:26.366Z,16.23
2022-12-11T22:31:54.814Z,14.80
2022-12-11T22:34:22.871Z,15.95
2022-12-11T22:36:50.893Z,15.85
2022-12-11T22:39:20.242Z,15.40
2022-12-11T22:41:48.476Z,14.27
2022-12-11T22:44:18.184Z,14.40
2022-12-11T22:46:50.000Z,15.25
2022-12-11T22:49:18.762Z,14.88
2022-12-11T22:51:46.898Z,15.70
2022-12-11T22:54:14.950Z,15.77
2022-12-11T22:56:44.713Z,15.05
2022-12-11T22:59:12.726Z,14.40
2022-12-11T23:01:40.724Z,16.17
2022-12-11T23:04:09.117Z,16.23
2022-12-11T23:06:37.134Z,15.10
2022-12-11T23:09:05.479Z,15.43
2022-12-11T23:11:36.685Z,15.35
2022-12-11T23:14:07.306Z,12.80
2022-12-11T23:16:35.920Z,16.30
2022-12-11T23:19:04.312Z,15.55
2022-12-11T23:21:32.354Z,14.40
2022-12-11T23:24:00.553Z,12.60
2022-12-11T23:26:30.244Z,16.00
2022-12-11T23:28:59.701Z,16.23
2022-12-11T23:31:30.202Z,11.65
2022-12-11T23:33:58.277Z,17.65
2022-12-11T23:36:27.267Z,13.82
2022-12-11T23:38:55.473Z,14.20
2022-12-11T23:41:24.094Z,14.32
2022-12-11T23:43:52.043Z,15.88
2022-12-11T23:46:23.477Z,16.23
2022-12-11T23:48:54.060Z,14.43
2022-12-11T23:51:40.629Z,12.98
2022-12-11T23:54:28.904Z,17.35
2022-12-11T23:57:10.409Z,17.92
2022-12-11T23:59:38.358Z,12.60
